PWSweather.com
Personal Weather Stations
Station Observations
KVAGLENALL
West Henrico, Glen Allen, VA 23060-6503

West HenricoGlen Allen, VA 23060-6503

Lat: 37.6554, Lon: -77.5693

Elevation: 273

Station Type: Davis Vantage Pro II

www.glenallenweather.com

High Low Average
Temperature 49.1°F9.5°C 33.8°F1.0°C 41.1°F5.1°C
Dew Point 41.2°F5.1°C 32.0°F0.0°C 36.8°F2.7°C
Winds 10.1 mph 16.3 kmh 0.1 mph 0.2 kmh 3.0 mph S4.8 kmh S
Wind Gusts 14.2 mph22.9 kmh 0.1 mph0.2 kmh 4.0 mph6.4 kmh
Humidity 98% 67% 86%
Pressure 30.39 in1029.1 mb 30.29 in1025.7 mb -
Precipitation 0.00 in0.0 mm - -
Hour Temp Dew Point Humidity Winds Wind Gusts Pressure Precip Precip Rate Daily Precip Total
12:00 AM 39.1°F3.9°C 37.8°F3.2°C 95% 1.0 mph NNW1.6 kmh NNW 2.1 mph3.4 kmh 30.34 in1027.4 mb 0.00 in0.0 mm 0.00 in0.0 mm 0.00 in0.0 mm
12:15 AM 38.4°F3.6°C 37.1°F2.8°C 95% 1.0 mph N1.6 kmh N 1.1 mph1.8 kmh 30.34 in1027.4 mb 0.00 in0.0 mm 0.00 in0.0 mm 0.00 in0.0 mm
12:30 AM 38.2°F3.4°C 37.2°F2.9°C 96% 0.1 mph N0.2 kmh N 1.1 mph1.8 kmh 30.34 in1027.4 mb 0.00 in0.0 mm 0.00 in0.0 mm 0.00 in0.0 mm
12:45 AM 37.6°F3.1°C 36.6°F2.6°C 96% 0.1 mph N0.2 kmh N 0.1 mph0.2 kmh 30.34 in1027.4 mb 0.00 in0.0 mm 0.00 in0.0 mm 0.00 in0.0 mm
01:00 AM 37.1°F2.8°C 35.8°F2.1°C 95% 0.1 mph NNE0.2 kmh NNE 0.1 mph0.2 kmh 30.34 in1027.4 mb 0.00 in0.0 mm 0.00 in0.0 mm 0.00 in0.0 mm
01:15 AM 36.5°F2.5°C 35.5°F1.9°C 96% 0.1 mph NNE0.2 kmh NNE 0.1 mph0.2 kmh 30.34 in1027.4 mb 0.00 in0.0 mm 0.00 in0.0 mm 0.00 in0.0 mm
01:30 AM 36.0°F2.2°C 35.0°F1.7°C 96% 0.1 mph NNE0.2 kmh NNE 0.1 mph0.2 kmh 30.34 in1027.4 mb 0.00 in0.0 mm 0.00 in0.0 mm 0.00 in0.0 mm
01:45 AM 36.0°F2.2°C 35.0°F1.7°C 96% 0.1 mph NNE0.2 kmh NNE 2.1 mph3.4 kmh 30.34 in1027.4 mb 0.00 in0.0 mm 0.00 in0.0 mm 0.00 in0.0 mm
02:00 AM 35.6°F2.0°C 34.6°F1.4°C 96% 0.1 mph NNE0.2 kmh NNE 1.1 mph1.8 kmh 30.34 in1027.4 mb 0.00 in0.0 mm 0.00 in0.0 mm 0.00 in0.0 mm
02:15 AM 36.3°F2.4°C 35.5°F1.9°C 97% 0.1 mph N0.2 kmh N 2.1 mph3.4 kmh 30.34 in1027.4 mb 0.00 in0.0 mm 0.00 in0.0 mm 0.00 in0.0 mm
02:30 AM 35.9°F2.2°C 34.9°F1.6°C 96% 0.1 mph N0.2 kmh N 1.1 mph1.8 kmh 30.34 in1027.4 mb 0.00 in0.0 mm 0.00 in0.0 mm 0.00 in0.0 mm
02:45 AM 36.2°F2.3°C 35.4°F1.9°C 97% 0.1 mph N0.2 kmh N 1.1 mph1.8 kmh 30.33 in1027.1 mb 0.00 in0.0 mm 0.00 in0.0 mm 0.00 in0.0 mm
03:00 AM 36.1°F2.3°C 35.3°F1.8°C 97% 0.1 mph N0.2 kmh N 3.1 mph5.0 kmh 30.33 in1027.1 mb 0.00 in0.0 mm 0.00 in0.0 mm 0.00 in0.0 mm
03:15 AM 35.5°F1.9°C 34.7°F1.5°C 97% 0.1 mph N0.2 kmh N 0.1 mph0.2 kmh 30.33 in1027.1 mb 0.00 in0.0 mm 0.00 in0.0 mm 0.00 in0.0 mm
03:30 AM 35.2°F1.8°C 34.4°F1.3°C 97% 0.1 mph N0.2 kmh N 1.1 mph1.8 kmh 30.33 in1027.1 mb 0.00 in0.0 mm 0.00 in0.0 mm 0.00 in0.0 mm
03:45 AM 34.9°F1.6°C 34.1°F1.2°C 97% 0.1 mph N0.2 kmh N 0.1 mph0.2 kmh 30.33 in1027.1 mb 0.00 in0.0 mm 0.00 in0.0 mm 0.00 in0.0 mm
04:00 AM 34.9°F1.6°C 34.1°F1.2°C 97% 0.1 mph N0.2 kmh N 0.1 mph0.2 kmh 30.33 in1027.1 mb 0.00 in0.0 mm 0.00 in0.0 mm 0.00 in0.0 mm
04:15 AM 35.0°F1.7°C 34.2°F1.2°C 97% 1.0 mph N1.6 kmh N 1.1 mph1.8 kmh 30.33 in1027.1 mb 0.00 in0.0 mm 0.00 in0.0 mm 0.00 in0.0 mm
04:30 AM 35.0°F1.7°C 34.2°F1.2°C 97% 1.0 mph N1.6 kmh N 2.1 mph3.4 kmh 30.33 in1027.1 mb 0.00 in0.0 mm 0.00 in0.0 mm 0.00 in0.0 mm
04:45 AM 35.0°F1.7°C 34.2°F1.2°C 97% 2.0 mph N3.2 kmh N 2.1 mph3.4 kmh 30.33 in1027.1 mb 0.00 in0.0 mm 0.00 in0.0 mm 0.00 in0.0 mm
05:00 AM 35.0°F1.7°C 34.2°F1.2°C 97% 0.1 mph N0.2 kmh N 0.1 mph0.2 kmh 30.34 in1027.4 mb 0.00 in0.0 mm 0.00 in0.0 mm 0.00 in0.0 mm
05:15 AM 34.6°F1.4°C 33.8°F1.0°C 97% 1.0 mph N1.6 kmh N 1.1 mph1.8 kmh 30.34 in1027.4 mb 0.00 in0.0 mm 0.00 in0.0 mm 0.00 in0.0 mm
05:30 AM 34.2°F1.2°C 33.4°F0.8°C 97% 0.1 mph NW0.2 kmh NW 2.1 mph3.4 kmh 30.34 in1027.4 mb 0.00 in0.0 mm 0.00 in0.0 mm 0.00 in0.0 mm
05:45 AM 34.4°F1.3°C 33.6°F0.9°C 97% 1.0 mph N1.6 kmh N 1.1 mph1.8 kmh 30.34 in1027.4 mb 0.00 in0.0 mm 0.00 in0.0 mm 0.00 in0.0 mm
06:00 AM 35.0°F1.7°C 34.5°F1.4°C 98% 2.0 mph N3.2 kmh N 2.1 mph3.4 kmh 30.34 in1027.4 mb 0.00 in0.0 mm 0.00 in0.0 mm 0.00 in0.0 mm
06:15 AM 35.1°F1.7°C 34.6°F1.4°C 98% 1.0 mph N1.6 kmh N 3.1 mph5.0 kmh 30.34 in1027.4 mb 0.00 in0.0 mm 0.00 in0.0 mm 0.00 in0.0 mm
06:30 AM 35.1°F1.7°C 34.6°F1.4°C 98% 1.0 mph N1.6 kmh N 2.1 mph3.4 kmh 30.35 in1027.8 mb 0.00 in0.0 mm 0.00 in0.0 mm 0.00 in0.0 mm
06:45 AM 35.0°F1.7°C 34.5°F1.4°C 98% 1.0 mph NNW1.6 kmh NNW 1.1 mph1.8 kmh 30.35 in1027.8 mb 0.00 in0.0 mm 0.00 in0.0 mm 0.00 in0.0 mm
07:00 AM 35.0°F1.7°C 34.5°F1.4°C 98% 3.0 mph N4.8 kmh N 3.1 mph5.0 kmh 30.36 in1028.1 mb 0.00 in0.0 mm 0.00 in0.0 mm 0.00 in0.0 mm
07:15 AM 35.0°F1.7°C 34.5°F1.4°C 98% 1.0 mph N1.6 kmh N 4.1 mph6.6 kmh 30.36 in1028.1 mb 0.00 in0.0 mm 0.00 in0.0 mm 0.00 in0.0 mm
07:30 AM 36.8°F2.7°C 36.3°F2.4°C 98% 3.0 mph NNE4.8 kmh NNE 6.1 mph9.8 kmh 30.36 in1028.1 mb 0.01 in0.3 mm 0.04 in1.0 mm 0.01 in0.3 mm
07:45 AM 38.0°F3.3°C 37.5°F3.1°C 98% 4.1 mph N6.6 kmh N 4.1 mph6.6 kmh 30.36 in1028.1 mb 0.01 in0.3 mm 0.00 in0.0 mm 0.01 in0.3 mm
08:00 AM 38.7°F3.7°C 38.2°F3.4°C 98% 2.0 mph NNW3.2 kmh NNW 6.1 mph9.8 kmh 30.37 in1028.4 mb 0.01 in0.3 mm 0.00 in0.0 mm 0.01 in0.3 mm
08:15 AM 39.7°F4.3°C 39.2°F4.0°C 98% 5.1 mph NNW8.2 kmh NNW 5.1 mph8.2 kmh 30.38 in1028.8 mb 0.01 in0.3 mm 0.00 in0.0 mm 0.01 in0.3 mm
08:30 AM 42.2°F5.7°C 40.1°F4.5°C 92% 3.0 mph NE4.8 kmh NE 5.1 mph8.2 kmh 30.38 in1028.8 mb 0.01 in0.3 mm 0.00 in0.0 mm 0.01 in0.3 mm
08:45 AM 43.6°F6.4°C 40.3°F4.6°C 88% 2.0 mph N3.2 kmh N 4.1 mph6.6 kmh 30.38 in1028.8 mb 0.00 in0.0 mm 0.00 in0.0 mm 0.01 in0.3 mm
09:00 AM 45.3°F7.4°C 40.5°F4.7°C 83% 6.1 mph NE9.8 kmh NE 11.2 mph18.0 kmh 30.38 in1028.8 mb 0.00 in0.0 mm 0.00 in0.0 mm 0.01 in0.3 mm
09:15 AM 46.4°F8.0°C 40.9°F4.9°C 81% 9.1 mph NNW14.6 kmh NNW 9.1 mph14.6 kmh 30.38 in1028.8 mb 0.00 in0.0 mm 0.00 in0.0 mm 0.01 in0.3 mm
09:30 AM 47.2°F8.4°C 40.7°F4.8°C 78% 10.1 mph N16.3 kmh N 14.2 mph22.9 kmh 30.38 in1028.8 mb 0.00 in0.0 mm 0.00 in0.0 mm 0.01 in0.3 mm
09:45 AM 47.9°F8.8°C 40.4°F4.7°C 75% 4.1 mph N6.6 kmh N 13.2 mph21.2 kmh 30.39 in1029.1 mb 0.00 in0.0 mm 0.00 in0.0 mm 0.01 in0.3 mm
10:00 AM 47.6°F8.7°C 40.5°F4.7°C 76% 4.1 mph NNE6.6 kmh NNE 10.1 mph16.3 kmh 30.39 in1029.1 mb 0.00 in0.0 mm 0.00 in0.0 mm 0.01 in0.3 mm
10:15 AM 47.4°F8.6°C 40.3°F4.6°C 76% 7.1 mph NE11.4 kmh NE 7.1 mph11.4 kmh 30.39 in1029.1 mb 0.00 in0.0 mm 0.00 in0.0 mm 0.01 in0.3 mm
10:30 AM 47.8°F8.8°C 40.0°F4.4°C 74% 9.1 mph NNE14.6 kmh NNE 9.1 mph14.6 kmh 30.38 in1028.8 mb 0.00 in0.0 mm 0.00 in0.0 mm 0.01 in0.3 mm
10:45 AM 48.7°F9.3°C 41.2°F5.1°C 75% 10.1 mph NE16.3 kmh NE 12.2 mph19.6 kmh 30.39 in1029.1 mb 0.00 in0.0 mm 0.00 in0.0 mm 0.01 in0.3 mm
11:00 AM 48.6°F9.2°C 40.7°F4.8°C 74% 3.0 mph NNE4.8 kmh NNE 7.1 mph11.4 kmh 30.38 in1028.8 mb 0.00 in0.0 mm 0.00 in0.0 mm 0.01 in0.3 mm
11:15 AM 49.1°F9.5°C 40.9°F4.9°C 73% 9.1 mph N14.6 kmh N 11.2 mph18.0 kmh 30.37 in1028.4 mb 0.00 in0.0 mm 0.00 in0.0 mm 0.01 in0.3 mm
11:30 AM 49.0°F9.4°C 40.8°F4.9°C 73% 10.1 mph N16.3 kmh N 12.2 mph19.6 kmh 30.36 in1028.1 mb 0.00 in0.0 mm 0.00 in0.0 mm 0.01 in0.3 mm
11:45 AM 48.8°F9.3°C 40.2°F4.6°C 72% 6.1 mph N9.8 kmh N 11.2 mph18.0 kmh 30.35 in1027.8 mb 0.00 in0.0 mm 0.00 in0.0 mm 0.01 in0.3 mm
12:00 PM 48.9°F9.4°C 40.3°F4.6°C 72% 3.0 mph NNE4.8 kmh NNE 11.2 mph18.0 kmh 30.35 in1027.8 mb 0.00 in0.0 mm 0.00 in0.0 mm 0.01 in0.3 mm
12:15 PM 48.8°F9.3°C 39.9°F4.4°C 71% 5.1 mph NNE8.2 kmh NNE 10.1 mph16.3 kmh 30.34 in1027.4 mb 0.00 in0.0 mm 0.00 in0.0 mm 0.01 in0.3 mm
12:30 PM 49.1°F9.5°C 40.5°F4.7°C 72% 4.1 mph NNE6.6 kmh NNE 9.1 mph14.6 kmh 30.34 in1027.4 mb 0.00 in0.0 mm 0.00 in0.0 mm 0.01 in0.3 mm
12:45 PM 48.9°F9.4°C 40.0°F4.4°C 71% 6.1 mph N9.8 kmh N 10.1 mph16.3 kmh 30.33 in1027.1 mb 0.00 in0.0 mm 0.00 in0.0 mm 0.01 in0.3 mm
01:00 PM 48.9°F9.4°C 40.3°F4.6°C 72% 9.1 mph NNE14.6 kmh NNE 10.1 mph16.3 kmh 30.33 in1027.1 mb 0.00 in0.0 mm 0.00 in0.0 mm 0.01 in0.3 mm
01:15 PM 48.6°F9.2°C 38.6°F3.7°C 68% 10.1 mph ENE16.3 kmh ENE 12.2 mph19.6 kmh 30.33 in1027.1 mb 0.00 in0.0 mm 0.00 in0.0 mm 0.01 in0.3 mm
01:30 PM 48.6°F9.2°C 38.6°F3.7°C 68% 9.1 mph N14.6 kmh N 11.2 mph18.0 kmh 30.32 in1026.8 mb 0.00 in0.0 mm 0.00 in0.0 mm 0.01 in0.3 mm
01:45 PM 48.4°F9.1°C 38.8°F3.8°C 69% 3.0 mph NNE4.8 kmh NNE 7.1 mph11.4 kmh 30.31 in1026.4 mb 0.00 in0.0 mm 0.00 in0.0 mm 0.01 in0.3 mm
02:00 PM 48.4°F9.1°C 38.4°F3.6°C 68% 5.1 mph NE8.2 kmh NE 9.1 mph14.6 kmh 30.31 in1026.4 mb 0.00 in0.0 mm 0.00 in0.0 mm 0.01 in0.3 mm
02:15 PM 48.4°F9.1°C 38.4°F3.6°C 68% 5.1 mph N8.2 kmh N 6.1 mph9.8 kmh 30.30 in1026.1 mb 0.00 in0.0 mm 0.00 in0.0 mm 0.01 in0.3 mm
02:30 PM 48.4°F9.1°C 38.4°F3.6°C 68% 8.1 mph NE13.0 kmh NE 8.1 mph13.0 kmh 30.30 in1026.1 mb 0.00 in0.0 mm 0.00 in0.0 mm 0.01 in0.3 mm
02:45 PM 48.4°F9.1°C 38.8°F3.8°C 69% 5.1 mph NNE8.2 kmh NNE 5.1 mph8.2 kmh 30.30 in1026.1 mb 0.00 in0.0 mm 0.00 in0.0 mm 0.01 in0.3 mm
03:00 PM 48.3°F9.1°C 38.3°F3.5°C 68% 2.0 mph NE3.2 kmh NE 5.1 mph8.2 kmh 30.30 in1026.1 mb 0.00 in0.0 mm 0.00 in0.0 mm 0.01 in0.3 mm
03:15 PM 48.1°F8.9°C 38.1°F3.4°C 68% 2.0 mph NNE3.2 kmh NNE 4.1 mph6.6 kmh 30.30 in1026.1 mb 0.00 in0.0 mm 0.00 in0.0 mm 0.01 in0.3 mm
03:30 PM 48.1°F8.9°C 38.1°F3.4°C 68% 5.1 mph N8.2 kmh N 5.1 mph8.2 kmh 30.30 in1026.1 mb 0.00 in0.0 mm 0.00 in0.0 mm 0.01 in0.3 mm
03:45 PM 47.9°F8.8°C 37.5°F3.1°C 67% 4.1 mph N6.6 kmh N 7.1 mph11.4 kmh 30.30 in1026.1 mb 0.00 in0.0 mm 0.00 in0.0 mm 0.01 in0.3 mm
04:00 PM 47.7°F8.7°C 37.7°F3.2°C 68% 4.1 mph NNW6.6 kmh NNW 8.1 mph13.0 kmh 30.30 in1026.1 mb 0.00 in0.0 mm 0.00 in0.0 mm 0.01 in0.3 mm
04:15 PM 47.4°F8.6°C 37.4°F3.0°C 68% 8.1 mph N13.0 kmh N 8.1 mph13.0 kmh 30.29 in1025.7 mb 0.00 in0.0 mm 0.00 in0.0 mm 0.01 in0.3 mm
04:30 PM 47.2°F8.4°C 37.6°F3.1°C 69% 1.0 mph N1.6 kmh N 5.1 mph8.2 kmh 30.29 in1025.7 mb 0.00 in0.0 mm 0.00 in0.0 mm 0.01 in0.3 mm
04:45 PM 46.8°F8.2°C 37.6°F3.1°C 70% 2.0 mph N3.2 kmh N 3.1 mph5.0 kmh 30.29 in1025.7 mb 0.00 in0.0 mm 0.00 in0.0 mm 0.01 in0.3 mm
05:00 PM 46.4°F8.0°C 37.9°F3.3°C 72% 0.1 mph NNE0.2 kmh NNE 1.1 mph1.8 kmh 30.30 in1026.1 mb 0.00 in0.0 mm 0.00 in0.0 mm 0.01 in0.3 mm
05:15 PM 45.9°F7.7°C 39.1°F3.9°C 77% 0.1 mph NNW0.2 kmh NNW 0.1 mph0.2 kmh 30.30 in1026.1 mb 0.00 in0.0 mm 0.00 in0.0 mm 0.01 in0.3 mm
05:30 PM 45.2°F7.3°C 39.1°F3.9°C 79% 0.1 mph NNW0.2 kmh NNW 0.1 mph0.2 kmh 30.30 in1026.1 mb 0.00 in0.0 mm 0.00 in0.0 mm 0.01 in0.3 mm
05:45 PM 44.8°F7.1°C 39.0°F3.9°C 80% 0.1 mph NNW0.2 kmh NNW 0.1 mph0.2 kmh 30.30 in1026.1 mb 0.00 in0.0 mm 0.00 in0.0 mm 0.01 in0.3 mm
06:00 PM 44.4°F6.9°C 38.7°F3.7°C 80% 0.1 mph NNW0.2 kmh NNW 1.1 mph1.8 kmh 30.30 in1026.1 mb 0.00 in0.0 mm 0.00 in0.0 mm 0.01 in0.3 mm
06:15 PM 43.6°F6.4°C 38.5°F3.6°C 82% 0.1 mph NNW0.2 kmh NNW 1.1 mph1.8 kmh 30.30 in1026.1 mb 0.00 in0.0 mm 0.00 in0.0 mm 0.01 in0.3 mm
06:30 PM 42.8°F6.0°C 38.0°F3.3°C 83% 0.1 mph NNW0.2 kmh NNW 0.1 mph0.2 kmh 30.30 in1026.1 mb 0.00 in0.0 mm 0.00 in0.0 mm 0.01 in0.3 mm
06:45 PM 42.4°F5.8°C 37.9°F3.3°C 84% 0.1 mph NNW0.2 kmh NNW 1.1 mph1.8 kmh 30.30 in1026.1 mb 0.00 in0.0 mm 0.00 in0.0 mm 0.01 in0.3 mm
07:00 PM 41.9°F5.5°C 38.0°F3.3°C 86% 0.1 mph NNW0.2 kmh NNW 1.1 mph1.8 kmh 30.30 in1026.1 mb 0.00 in0.0 mm 0.00 in0.0 mm 0.01 in0.3 mm
07:15 PM 40.7°F4.8°C 36.9°F2.7°C 86% 0.1 mph NNW0.2 kmh NNW 1.1 mph1.8 kmh 30.30 in1026.1 mb 0.00 in0.0 mm 0.00 in0.0 mm 0.01 in0.3 mm
07:30 PM 40.0°F4.4°C 36.7°F2.6°C 88% 0.1 mph NNW0.2 kmh NNW 2.1 mph3.4 kmh 30.30 in1026.1 mb 0.00 in0.0 mm 0.00 in0.0 mm 0.01 in0.3 mm
07:45 PM 39.6°F4.2°C 36.6°F2.6°C 89% 0.1 mph NNW0.2 kmh NNW 2.1 mph3.4 kmh 30.31 in1026.4 mb 0.00 in0.0 mm 0.00 in0.0 mm 0.01 in0.3 mm
08:00 PM 39.0°F3.9°C 36.0°F2.2°C 89% 1.0 mph N1.6 kmh N 3.1 mph5.0 kmh 30.31 in1026.4 mb 0.00 in0.0 mm 0.00 in0.0 mm 0.01 in0.3 mm
08:15 PM 38.4°F3.6°C 35.4°F1.9°C 89% 0.1 mph N0.2 kmh N 1.1 mph1.8 kmh 30.31 in1026.4 mb 0.00 in0.0 mm 0.00 in0.0 mm 0.01 in0.3 mm
08:30 PM 37.9°F3.3°C 35.5°F1.9°C 91% 0.1 mph N0.2 kmh N 1.1 mph1.8 kmh 30.31 in1026.4 mb 0.00 in0.0 mm 0.00 in0.0 mm 0.01 in0.3 mm
08:45 PM 37.3°F2.9°C 35.2°F1.8°C 92% 1.0 mph NNW1.6 kmh NNW 1.1 mph1.8 kmh 30.31 in1026.4 mb 0.00 in0.0 mm 0.00 in0.0 mm 0.01 in0.3 mm
09:00 PM 37.1°F2.8°C 34.7°F1.5°C 91% 1.0 mph N1.6 kmh N 4.1 mph6.6 kmh 30.31 in1026.4 mb 0.00 in0.0 mm 0.00 in0.0 mm 0.01 in0.3 mm
09:15 PM 36.6°F2.6°C 34.2°F1.2°C 91% 1.0 mph N1.6 kmh N 2.1 mph3.4 kmh 30.31 in1026.4 mb 0.00 in0.0 mm 0.00 in0.0 mm 0.01 in0.3 mm
09:30 PM 36.4°F2.4°C 34.0°F1.1°C 91% 1.0 mph N1.6 kmh N 1.1 mph1.8 kmh 30.31 in1026.4 mb 0.00 in0.0 mm 0.00 in0.0 mm 0.01 in0.3 mm
09:45 PM 36.0°F2.2°C 33.9°F1.1°C 92% 0.1 mph NNW0.2 kmh NNW 2.1 mph3.4 kmh 30.31 in1026.4 mb 0.00 in0.0 mm 0.00 in0.0 mm 0.01 in0.3 mm
10:00 PM 35.5°F1.9°C 33.4°F0.8°C 92% 0.1 mph N0.2 kmh N 1.1 mph1.8 kmh 30.30 in1026.1 mb 0.00 in0.0 mm 0.00 in0.0 mm 0.01 in0.3 mm
10:15 PM 35.3°F1.8°C 33.2°F0.7°C 92% 2.0 mph N3.2 kmh N 3.1 mph5.0 kmh 30.30 in1026.1 mb 0.00 in0.0 mm 0.00 in0.0 mm 0.01 in0.3 mm
10:30 PM 35.1°F1.7°C 33.0°F0.6°C 92% 2.0 mph N3.2 kmh N 2.1 mph3.4 kmh 30.30 in1026.1 mb 0.00 in0.0 mm 0.00 in0.0 mm 0.01 in0.3 mm
10:45 PM 34.8°F1.6°C 32.7°F0.4°C 92% 1.0 mph N1.6 kmh N 2.1 mph3.4 kmh 30.30 in1026.1 mb 0.00 in0.0 mm 0.00 in0.0 mm 0.01 in0.3 mm
11:00 PM 34.5°F1.4°C 32.4°F0.2°C 92% 0.1 mph N0.2 kmh N 2.1 mph3.4 kmh 30.30 in1026.1 mb 0.00 in0.0 mm 0.00 in0.0 mm 0.01 in0.3 mm
11:15 PM 34.1°F1.2°C 32.0°F0.0°C 92% 0.1 mph N0.2 kmh N 0.1 mph0.2 kmh 30.30 in1026.1 mb 0.00 in0.0 mm 0.00 in0.0 mm 0.01 in0.3 mm
11:30 PM 33.8°F1.0°C 32.0°F0.0°C 93% 1.0 mph N1.6 kmh N 2.1 mph3.4 kmh 30.29 in1025.7 mb 0.00 in0.0 mm 0.00 in0.0 mm 0.01 in0.3 mm
11:45 PM 33.8°F1.0°C 32.0°F0.0°C 93% 1.0 mph NW1.6 kmh NW 1.1 mph1.8 kmh 30.30 in1026.1 mb 0.00 in0.0 mm 0.00 in0.0 mm 0.01 in0.3 mm